sensor_id;sensor_type;location;lat;lon;timestamp;pressure;altitude;pressure_sealevel;temperature
8362;BMP180;4218;48.326;14.304;2022-12-13T00:01:26;98122.00;;;23.00
8362;BMP180;4218;48.326;14.304;2022-12-13T00:03:52;98125.00;;;23.00
8362;BMP180;4218;48.326;14.304;2022-12-13T00:06:18;98123.00;;;23.10
8362;BMP180;4218;48.326;14.304;2022-12-13T00:08:44;98134.00;;;23.10
8362;BMP180;4218;48.326;14.304;2022-12-13T00:11:11;98130.00;;;23.10
8362;BMP180;4218;48.326;14.304;2022-12-13T00:13:37;98124.00;;;23.10
8362;BMP180;4218;48.326;14.304;2022-12-13T00:16:07;98118.00;;;23.10
8362;BMP180;4218;48.326;14.304;2022-12-13T00:18:33;98121.00;;;23.10
8362;BMP180;4218;48.326;14.304;2022-12-13T00:20:58;98126.00;;;23.10
8362;BMP180;4218;48.326;14.304;2022-12-13T00:23:24;98121.00;;;23.10
8362;BMP180;4218;48.326;14.304;2022-12-13T00:25:49;98115.00;;;23.10
8362;BMP180;4218;48.326;14.304;2022-12-13T00:28:15;98115.00;;;23.10
8362;BMP180;4218;48.326;14.304;2022-12-13T00:30:41;98119.00;;;23.10
8362;BMP180;4218;48.326;14.304;2022-12-13T00:33:06;98116.00;;;23.10
8362;BMP180;4218;48.326;14.304;2022-12-13T00:35:32;98121.00;;;23.10
8362;BMP180;4218;48.326;14.304;2022-12-13T00:37:57;98116.00;;;23.10
8362;BMP180;4218;48.326;14.304;2022-12-13T00:40:23;98112.00;;;23.10
8362;BMP180;4218;48.326;14.304;2022-12-13T00:42:48;98110.00;;;23.10
8362;BMP180;4218;48.326;14.304;2022-12-13T00:45:14;98114.00;;;23.10
8362;BMP180;4218;48.326;14.304;2022-12-13T00:47:39;98112.00;;;23.10
8362;BMP180;4218;48.326;14.304;2022-12-13T00:50:05;98114.00;;;23.10
8362;BMP180;4218;48.326;14.304;2022-12-13T00:52:32;98118.00;;;23.10
8362;BMP180;4218;48.326;14.304;2022-12-13T00:54:58;98114.00;;;23.20
8362;BMP180;4218;48.326;14.304;2022-12-13T00:57:23;98107.00;;;23.20
8362;BMP180;4218;48.326;14.304;2022-12-13T00:59:49;98116.00;;;23.20
8362;BMP180;4218;48.326;14.304;2022-12-13T01:02:15;98109.00;;;23.20
8362;BMP180;4218;48.326;14.304;2022-12-13T01:04:40;98119.00;;;23.20
8362;BMP180;4218;48.326;14.304;2022-12-13T01:07:06;98110.00;;;23.20
8362;BMP180;4218;48.326;14.304;2022-12-13T01:09:31;98117.00;;;23.20
8362;BMP180;4218;48.326;14.304;2022-12-13T01:12:04;98110.00;;;23.20
8362;BMP180;4218;48.326;14.304;2022-12-13T01:14:32;98112.00;;;23.20
8362;BMP180;4218;48.326;14.304;2022-12-13T01:16:58;98115.00;;;23.20
8362;BMP180;4218;48.326;14.304;2022-12-13T01:19:25;98107.00;;;23.20
8362;BMP180;4218;48.326;14.304;2022-12-13T01:21:55;98108.00;;;23.20
8362;BMP180;4218;48.326;14.304;2022-12-13T01:24:20;98109.00;;;23.20
8362;BMP180;4218;48.326;14.304;2022-12-13T01:26:49;98103.00;;;23.20
8362;BMP180;4218;48.326;14.304;2022-12-13T01:29:15;98102.00;;;23.20
8362;BMP180;4218;48.326;14.304;2022-12-13T01:31:41;98101.00;;;23.20
8362;BMP180;4218;48.326;14.304;2022-12-13T01:34:10;98096.00;;;23.20
8362;BMP180;4218;48.326;14.304;2022-12-13T01:36:36;98094.00;;;23.20
8362;BMP180;4218;48.326;14.304;2022-12-13T01:39:02;98093.00;;;23.20
8362;BMP180;4218;48.326;14.304;2022-12-13T01:41:28;98099.00;;;23.20
8362;BMP180;4218;48.326;14.304;2022-12-13T01:43:57;98088.00;;;23.20
8362;BMP180;4218;48.326;14.304;2022-12-13T01:46:25;98091.00;;;23.20
8362;BMP180;4218;48.326;14.304;2022-12-13T01:51:46;98088.00;;;23.20
8362;BMP180;4218;48.326;14.304;2022-12-13T01:54:16;98082.00;;;23.20
8362;BMP180;4218;48.326;14.304;2022-12-13T01:56:46;98067.00;;;23.20
8362;BMP180;4218;48.326;14.304;2022-12-13T01:59:16;98073.00;;;23.20
8362;BMP180;4218;48.326;14.304;2022-12-13T02:01:43;98077.00;;;23.20
8362;BMP180;4218;48.326;14.304;2022-12-13T02:04:08;98078.00;;;23.20
8362;BMP180;4218;48.326;14.304;2022-12-13T02:06:40;98077.00;;;23.20
8362;BMP180;4218;48.326;14.304;2022-12-13T02:09:08;98070.00;;;23.20
8362;BMP180;4218;48.326;14.304;2022-12-13T02:11:37;98073.00;;;23.20
8362;BMP180;4218;48.326;14.304;2022-12-13T02:14:03;98078.00;;;23.20
8362;BMP180;4218;48.326;14.304;2022-12-13T02:30:39;98078.00;;;23.20
8362;BMP180;4218;48.326;14.304;2022-12-13T02:33:22;98069.00;;;23.20
8362;BMP180;4218;48.326;14.304;2022-12-13T02:36:11;98072.00;;;23.20
8362;BMP180;4218;48.326;14.304;2022-12-13T02:38:48;98066.00;;;23.20
8362;BMP180;4218;48.326;14.304;2022-12-13T02:41:35;98068.00;;;23.20
8362;BMP180;4218;48.326;14.304;2022-12-13T02:44:08;98062.00;;;23.20
8362;BMP180;4218;48.326;14.304;2022-12-13T02:46:40;98056.00;;;23.20
8362;BMP180;4218;48.326;14.304;2022-12-13T02:49:08;98060.00;;;23.20
8362;BMP180;4218;48.326;14.304;2022-12-13T02:51:35;98066.00;;;23.20
8362;BMP180;4218;48.326;14.304;2022-12-13T02:54:01;98059.00;;;23.20
8362;BMP180;4218;48.326;14.304;2022-12-13T02:56:27;98060.00;;;23.20
8362;BMP180;4218;48.326;14.304;2022-12-13T02:58:53;98062.00;;;23.20
8362;BMP180;4218;48.326;14.304;2022-12-13T03:07:27;98047.00;;;23.20
8362;BMP180;4218;48.326;14.304;2022-12-13T03:10:09;98043.00;;;23.20
8362;BMP180;4218;48.326;14.304;2022-12-13T03:12:43;98046.00;;;23.20
8362;BMP180;4218;48.326;14.304;2022-12-13T03:15:42;98043.00;;;23.20
8362;BMP180;4218;48.326;14.304;2022-12-13T03:18:20;98043.00;;;23.20
8362;BMP180;4218;48.326;14.304;2022-12-13T03:20:51;98048.00;;;23.20
8362;BMP180;4218;48.326;14.304;2022-12-13T03:23:17;98029.00;;;23.20
8362;BMP180;4218;48.326;14.304;2022-12-13T03:25:44;98024.00;;;23.20
8362;BMP180;4218;48.326;14.304;2022-12-13T03:28:11;98031.00;;;23.20
8362;BMP180;4218;48.326;14.304;2022-12-13T03:30:37;98031.00;;;23.20
8362;BMP180;4218;48.326;14.304;2022-12-13T03:33:02;98030.00;;;23.20
8362;BMP180;4218;48.326;14.304;2022-12-13T03:35:28;98021.00;;;23.20
8362;BMP180;4218;48.326;14.304;2022-12-13T03:37:53;98008.00;;;23.20
8362;BMP180;4218;48.326;14.304;2022-12-13T03:40:19;98024.00;;;23.20
8362;BMP180;4218;48.326;14.304;2022-12-13T03:42:45;98009.00;;;23.20
8362;BMP180;4218;48.326;14.304;2022-12-13T03:45:11;98022.00;;;23.30
8362;BMP180;4218;48.326;14.304;2022-12-13T03:47:36;98009.00;;;23.20
8362;BMP180;4218;48.326;14.304;2022-12-13T03:50:02;98004.00;;;23.30
8362;BMP180;4218;48.326;14.304;2022-12-13T03:52:27;98010.00;;;23.20
8362;BMP180;4218;48.326;14.304;2022-12-13T03:54:53;98003.00;;;23.20
8362;BMP180;4218;48.326;14.304;2022-12-13T03:57:18;98003.00;;;23.20
8362;BMP180;4218;48.326;14.304;2022-12-13T03:59:43;98000.00;;;23.20
8362;BMP180;4218;48.326;14.304;2022-12-13T04:02:09;98005.00;;;23.20
8362;BMP180;4218;48.326;14.304;2022-12-13T04:04:34;98002.00;;;23.20
8362;BMP180;4218;48.326;14.304;2022-12-13T04:06:59;98001.00;;;23.20
8362;BMP180;4218;48.326;14.304;2022-12-13T04:09:25;97991.00;;;23.20
8362;BMP180;4218;48.326;14.304;2022-12-13T04:11:50;97993.00;;;23.30
8362;BMP180;4218;48.326;14.304;2022-12-13T04:14:34;97987.00;;;23.20
8362;BMP180;4218;48.326;14.304;2022-12-13T04:16:59;97989.00;;;23.20
8362;BMP180;4218;48.326;14.304;2022-12-13T04:19:25;97979.00;;;23.20
8362;BMP180;4218;48.326;14.304;2022-12-13T04:21:51;97986.00;;;23.30
8362;BMP180;4218;48.326;14.304;2022-12-13T04:24:18;97986.00;;;23.30
8362;BMP180;4218;48.326;14.304;2022-12-13T04:26:43;97993.00;;;23.30
8362;BMP180;4218;48.326;14.304;2022-12-13T04:29:09;97991.00;;;23.20
8362;BMP180;4218;48.326;14.304;2022-12-13T04:31:34;97996.00;;;23.20
8362;BMP180;4218;48.326;14.304;2022-12-13T04:33:59;97978.00;;;23.30
8362;BMP180;4218;48.326;14.304;2022-12-13T04:36:25;97982.00;;;23.30
8362;BMP180;4218;48.326;14.304;2022-12-13T04:38:50;97980.00;;;23.30
8362;BMP180;4218;48.326;14.304;2022-12-13T04:41:17;97982.00;;;23.30
8362;BMP180;4218;48.326;14.304;2022-12-13T04:43:43;97972.00;;;23.30
8362;BMP180;4218;48.326;14.304;2022-12-13T04:46:08;97975.00;;;23.30
8362;BMP180;4218;48.326;14.304;2022-12-13T04:48:34;97978.00;;;23.30
8362;BMP180;4218;48.326;14.304;2022-12-13T04:50:59;97968.00;;;23.30
8362;BMP180;4218;48.326;14.304;2022-12-13T04:53:25;97967.00;;;23.30
8362;BMP180;4218;48.326;14.304;2022-12-13T04:55:50;97971.00;;;23.30
8362;BMP180;4218;48.326;14.304;2022-12-13T04:58:17;97973.00;;;23.30
8362;BMP180;4218;48.326;14.304;2022-12-13T05:00:42;97973.00;;;23.30
8362;BMP180;4218;48.326;14.304;2022-12-13T05:03:08;97973.00;;;23.30
8362;BMP180;4218;48.326;14.304;2022-12-13T05:05:33;97970.00;;;23.30
8362;BMP180;4218;48.326;14.304;2022-12-13T05:07:58;97968.00;;;23.30
8362;BMP180;4218;48.326;14.304;2022-12-13T05:10:24;97966.00;;;23.40
8362;BMP180;4218;48.326;14.304;2022-12-13T05:12:49;97966.00;;;23.40
8362;BMP180;4218;48.326;14.304;2022-12-13T05:15:15;97973.00;;;23.40
8362;BMP180;4218;48.326;14.304;2022-12-13T05:17:40;97958.00;;;23.40
8362;BMP180;4218;48.326;14.304;2022-12-13T05:20:06;97969.00;;;23.40
8362;BMP180;4218;48.326;14.304;2022-12-13T05:22:31;97968.00;;;23.50
8362;BMP180;4218;48.326;14.304;2022-12-13T05:24:56;97973.00;;;23.50
8362;BMP180;4218;48.326;14.304;2022-12-13T05:27:22;97965.00;;;23.50
8362;BMP180;4218;48.326;14.304;2022-12-13T05:29:47;97968.00;;;23.60
8362;BMP180;4218;48.326;14.304;2022-12-13T05:32:13;97961.00;;;23.60
8362;BMP180;4218;48.326;14.304;2022-12-13T05:34:41;97969.00;;;23.60
8362;BMP180;4218;48.326;14.304;2022-12-13T05:37:06;97960.00;;;23.60
8362;BMP180;4218;48.326;14.304;2022-12-13T05:39:32;97960.00;;;23.70
8362;BMP180;4218;48.326;14.304;2022-12-13T05:41:58;97962.00;;;23.70
8362;BMP180;4218;48.326;14.304;2022-12-13T05:44:24;97957.00;;;23.70
8362;BMP180;4218;48.326;14.304;2022-12-13T05:46:49;97969.00;;;23.70
8362;BMP180;4218;48.326;14.304;2022-12-13T05:49:14;97968.00;;;23.70
8362;BMP180;4218;48.326;14.304;2022-12-13T05:51:40;97957.00;;;23.80
8362;BMP180;4218;48.326;14.304;2022-12-13T05:54:05;97950.00;;;23.80
8362;BMP180;4218;48.326;14.304;2022-12-13T05:56:30;97955.00;;;23.80
8362;BMP180;4218;48.326;14.304;2022-12-13T05:58:56;97955.00;;;23.90
8362;BMP180;4218;48.326;14.304;2022-12-13T06:01:21;97951.00;;;23.90
8362;BMP180;4218;48.326;14.304;2022-12-13T06:03:46;97956.00;;;23.90
8362;BMP180;4218;48.326;14.304;2022-12-13T06:06:12;97956.00;;;23.90
8362;BMP180;4218;48.326;14.304;2022-12-13T06:08:38;97960.00;;;23.90
8362;BMP180;4218;48.326;14.304;2022-12-13T06:11:04;97951.00;;;23.90
8362;BMP180;4218;48.326;14.304;2022-12-13T06:13:30;97944.00;;;24.00
8362;BMP180;4218;48.326;14.304;2022-12-13T06:16:04;97951.00;;;24.00
8362;BMP180;4218;48.326;14.304;2022-12-13T06:18:30;97952.00;;;24.00
8362;BMP180;4218;48.326;14.304;2022-12-13T06:20:58;97961.00;;;24.00
8362;BMP180;4218;48.326;14.304;2022-12-13T06:23:24;97968.00;;;24.00
8362;BMP180;4218;48.326;14.304;2022-12-13T06:25:49;97953.00;;;24.00
8362;BMP180;4218;48.326;14.304;2022-12-13T06:28:15;97959.00;;;24.00
8362;BMP180;4218;48.326;14.304;2022-12-13T06:30:41;97961.00;;;24.00
8362;BMP180;4218;48.326;14.304;2022-12-13T06:33:07;97956.00;;;24.00
8362;BMP180;4218;48.326;14.304;2022-12-13T06:35:32;97959.00;;;24.00
8362;BMP180;4218;48.326;14.304;2022-12-13T06:37:57;97958.00;;;24.00
8362;BMP180;4218;48.326;14.304;2022-12-13T06:40:23;97973.00;;;24.00
8362;BMP180;4218;48.326;14.304;2022-12-13T06:42:48;97966.00;;;24.10
8362;BMP180;4218;48.326;14.304;2022-12-13T06:45:13;97964.00;;;24.10
8362;BMP180;4218;48.326;14.304;2022-12-13T06:47:39;97965.00;;;24.10
8362;BMP180;4218;48.326;14.304;2022-12-13T06:50:05;97965.00;;;24.10
8362;BMP180;4218;48.326;14.304;2022-12-13T06:52:30;97968.00;;;24.20
8362;BMP180;4218;48.326;14.304;2022-12-13T06:54:55;97961.00;;;24.20
8362;BMP180;4218;48.326;14.304;2022-12-13T06:57:21;97966.00;;;24.20
8362;BMP180;4218;48.326;14.304;2022-12-13T06:59:46;97966.00;;;24.20
8362;BMP180;4218;48.326;14.304;2022-12-13T07:02:12;97973.00;;;24.20
8362;BMP180;4218;48.326;14.304;2022-12-13T07:04:37;97970.00;;;24.20
8362;BMP180;4218;48.326;14.304;2022-12-13T07:07:02;97978.00;;;24.20
8362;BMP180;4218;48.326;14.304;2022-12-13T07:09:31;97974.00;;;24.20
8362;BMP180;4218;48.326;14.304;2022-12-13T07:11:57;97972.00;;;24.20
8362;BMP180;4218;48.326;14.304;2022-12-13T07:14:23;97977.00;;;24.20
8362;BMP180;4218;48.326;14.304;2022-12-13T07:16:48;97977.00;;;24.20
8362;BMP180;4218;48.326;14.304;2022-12-13T07:19:14;97981.00;;;24.20
8362;BMP180;4218;48.326;14.304;2022-12-13T07:21:39;97986.00;;;24.20
8362;BMP180;4218;48.326;14.304;2022-12-13T07:24:05;97981.00;;;24.20
8362;BMP180;4218;48.326;14.304;2022-12-13T07:26:31;97981.00;;;24.30
8362;BMP180;4218;48.326;14.304;2022-12-13T07:28:56;97983.00;;;24.30
8362;BMP180;4218;48.326;14.304;2022-12-13T07:31:22;97986.00;;;24.30
8362;BMP180;4218;48.326;14.304;2022-12-13T07:33:48;97984.00;;;24.40
8362;BMP180;4218;48.326;14.304;2022-12-13T07:36:19;97990.00;;;24.40
8362;BMP180;4218;48.326;14.304;2022-12-13T07:38:52;97992.00;;;24.40
8362;BMP180;4218;48.326;14.304;2022-12-13T07:41:19;97988.00;;;24.40
8362;BMP180;4218;48.326;14.304;2022-12-13T07:43:45;97990.00;;;24.50
8362;BMP180;4218;48.326;14.304;2022-12-13T07:46:10;97977.00;;;24.50
8362;BMP180;4218;48.326;14.304;2022-12-13T07:48:36;97981.00;;;24.50
8362;BMP180;4218;48.326;14.304;2022-12-13T07:51:04;97978.00;;;24.50
8362;BMP180;4218;48.326;14.304;2022-12-13T07:53:31;97973.00;;;24.60
8362;BMP180;4218;48.326;14.304;2022-12-13T07:55:56;97969.00;;;24.60
8362;BMP180;4218;48.326;14.304;2022-12-13T07:58:24;97972.00;;;24.60
8362;BMP180;4218;48.326;14.304;2022-12-13T08:00:50;97972.00;;;24.60
8362;BMP180;4218;48.326;14.304;2022-12-13T08:03:15;97979.00;;;24.70
8362;BMP180;4218;48.326;14.304;2022-12-13T08:05:41;97983.00;;;24.70
8362;BMP180;4218;48.326;14.304;2022-12-13T08:08:08;97976.00;;;24.70
8362;BMP180;4218;48.326;14.304;2022-12-13T08:10:34;97979.00;;;24.80
8362;BMP180;4218;48.326;14.304;2022-12-13T08:13:03;97966.00;;;24.80
8362;BMP180;4218;48.326;14.304;2022-12-13T08:15:29;97964.00;;;24.80
8362;BMP180;4218;48.326;14.304;2022-12-13T08:18:00;97951.00;;;24.80
8362;BMP180;4218;48.326;14.304;2022-12-13T08:20:26;97964.00;;;24.80
8362;BMP180;4218;48.326;14.304;2022-12-13T08:22:55;97960.00;;;24.80
8362;BMP180;4218;48.326;14.304;2022-12-13T08:25:21;97969.00;;;24.90
8362;BMP180;4218;48.326;14.304;2022-12-13T08:27:46;97966.00;;;24.90
8362;BMP180;4218;48.326;14.304;2022-12-13T08:30:12;97967.00;;;24.90
8362;BMP180;4218;48.326;14.304;2022-12-13T08:32:37;97958.00;;;24.90
8362;BMP180;4218;48.326;14.304;2022-12-13T08:35:03;97966.00;;;24.90
8362;BMP180;4218;48.326;14.304;2022-12-13T08:37:28;97964.00;;;24.90
8362;BMP180;4218;48.326;14.304;2022-12-13T08:39:53;97963.00;;;25.00
8362;BMP180;4218;48.326;14.304;2022-12-13T08:42:19;97962.00;;;25.00
8362;BMP180;4218;48.326;14.304;2022-12-13T08:44:48;97957.00;;;25.00
8362;BMP180;4218;48.326;14.304;2022-12-13T08:47:14;97951.00;;;25.00
8362;BMP180;4218;48.326;14.304;2022-12-13T08:49:40;97953.00;;;25.00
8362;BMP180;4218;48.326;14.304;2022-12-13T08:52:05;97955.00;;;25.00
8362;BMP180;4218;48.326;14.304;2022-12-13T08:54:32;97966.00;;;25.00
8362;BMP180;4218;48.326;14.304;2022-12-13T08:56:58;97965.00;;;25.00
8362;BMP180;4218;48.326;14.304;2022-12-13T08:59:23;97972.00;;;25.10
8362;BMP180;4218;48.326;14.304;2022-12-13T09:01:50;97967.00;;;25.10
8362;BMP180;4218;48.326;14.304;2022-12-13T09:04:15;97968.00;;;25.10
8362;BMP180;4218;48.326;14.304;2022-12-13T09:06:41;97957.00;;;25.10
8362;BMP180;4218;48.326;14.304;2022-12-13T09:09:07;97968.00;;;25.10
8362;BMP180;4218;48.326;14.304;2022-12-13T09:11:33;97969.00;;;25.10
8362;BMP180;4218;48.326;14.304;2022-12-13T09:13:58;97968.00;;;25.10
8362;BMP180;4218;48.326;14.304;2022-12-13T09:16:24;97969.00;;;25.10
8362;BMP180;4218;48.326;14.304;2022-12-13T09:18:53;97973.00;;;25.10
8362;BMP180;4218;48.326;14.304;2022-12-13T09:21:18;97975.00;;;25.10
8362;BMP180;4218;48.326;14.304;2022-12-13T09:23:44;97964.00;;;25.20
8362;BMP180;4218;48.326;14.304;2022-12-13T09:26:12;97966.00;;;25.20
8362;BMP180;4218;48.326;14.304;2022-12-13T09:28:39;97963.00;;;25.10
8362;BMP180;4218;48.326;14.304;2022-12-13T09:31:16;97949.00;;;25.10
8362;BMP180;4218;48.326;14.304;2022-12-13T09:33:43;97946.00;;;25.20
8362;BMP180;4218;48.326;14.304;2022-12-13T09:36:16;97945.00;;;25.10
8362;BMP180;4218;48.326;14.304;2022-12-13T09:38:42;97940.00;;;25.10
8362;BMP180;4218;48.326;14.304;2022-12-13T09:43:57;97928.00;;;25.20
8362;BMP180;4218;48.326;14.304;2022-12-13T09:46:30;97923.00;;;25.20
8362;BMP180;4218;48.326;14.304;2022-12-13T09:48:57;97914.00;;;25.20
8362;BMP180;4218;48.326;14.304;2022-12-13T09:51:25;97911.00;;;25.20
8362;BMP180;4218;48.326;14.304;2022-12-13T09:53:51;97912.00;;;25.20
8362;BMP180;4218;48.326;14.304;2022-12-13T09:56:19;97917.00;;;25.20
8362;BMP180;4218;48.326;14.304;2022-12-13T09:58:52;97913.00;;;25.20
8362;BMP180;4218;48.326;14.304;2022-12-13T10:01:19;97918.00;;;25.20
8362;BMP180;4218;48.326;14.304;2022-12-13T10:03:48;97917.00;;;25.20
8362;BMP180;4218;48.326;14.304;2022-12-13T10:06:22;97918.00;;;25.20
8362;BMP180;4218;48.326;14.304;2022-12-13T10:08:52;97916.00;;;25.20
8362;BMP180;4218;48.326;14.304;2022-12-13T10:11:20;97911.00;;;25.20
8362;BMP180;4218;48.326;14.304;2022-12-13T10:14:02;97911.00;;;25.20
8362;BMP180;4218;48.326;14.304;2022-12-13T10:21:44;97907.00;;;25.20
8362;BMP180;4218;48.326;14.304;2022-12-13T10:24:26;97901.00;;;25.20
8362;BMP180;4218;48.326;14.304;2022-12-13T10:27:12;97894.00;;;25.20
8362;BMP180;4218;48.326;14.304;2022-12-13T10:32:33;97887.00;;;25.20
8362;BMP180;4218;48.326;14.304;2022-12-13T10:35:38;97884.00;;;25.20
8362;BMP180;4218;48.326;14.304;2022-12-13T10:40:38;97883.00;;;25.20
8362;BMP180;4218;48.326;14.304;2022-12-13T10:43:18;97872.00;;;25.30
8362;BMP180;4218;48.326;14.304;2022-12-13T10:48:38;97862.00;;;25.30
8362;BMP180;4218;48.326;14.304;2022-12-13T10:51:10;97871.00;;;25.30
8362;BMP180;4218;48.326;14.304;2022-12-13T10:53:50;97876.00;;;25.30
8362;BMP180;4218;48.326;14.304;2022-12-13T10:56:19;97878.00;;;25.40
8362;BMP180;4218;48.326;14.304;2022-12-13T10:58:46;97870.00;;;25.40
8362;BMP180;4218;48.326;14.304;2022-12-13T11:04:03;97863.00;;;25.40
8362;BMP180;4218;48.326;14.304;2022-12-13T11:06:46;97861.00;;;25.40
8362;BMP180;4218;48.326;14.304;2022-12-13T11:09:37;97853.00;;;25.40
8362;BMP180;4218;48.326;14.304;2022-12-13T11:12:03;97841.00;;;25.40
8362;BMP180;4218;48.326;14.304;2022-12-13T11:14:39;97848.00;;;25.40
8362;BMP180;4218;48.326;14.304;2022-12-13T11:17:20;97847.00;;;25.40
8362;BMP180;4218;48.326;14.304;2022-12-13T11:19:48;97842.00;;;25.40
8362;BMP180;4218;48.326;14.304;2022-12-13T11:22:27;97845.00;;;25.40
8362;BMP180;4218;48.326;14.304;2022-12-13T11:25:23;97836.00;;;25.40
8362;BMP180;4218;48.326;14.304;2022-12-13T11:39:19;97829.00;;;25.50
8362;BMP180;4218;48.326;14.304;2022-12-13T11:41:50;97823.00;;;25.50
8362;BMP180;4218;48.326;14.304;2022-12-13T11:44:27;97817.00;;;25.50
8362;BMP180;4218;48.326;14.304;2022-12-13T11:46:58;97808.00;;;25.50
8362;BMP180;4218;48.326;14.304;2022-12-13T11:49:42;97816.00;;;25.40
8362;BMP180;4218;48.326;14.304;2022-12-13T11:52:29;97817.00;;;25.40
8362;BMP180;4218;48.326;14.304;2022-12-13T11:54:57;97817.00;;;25.40
8362;BMP180;4218;48.326;14.304;2022-12-13T11:57:32;97811.00;;;25.40
8362;BMP180;4218;48.326;14.304;2022-12-13T12:02:54;97818.00;;;25.40
8362;BMP180;4218;48.326;14.304;2022-12-13T12:05:34;97822.00;;;25.40
8362;BMP180;4218;48.326;14.304;2022-12-13T12:08:10;97813.00;;;25.40
8362;BMP180;4218;48.326;14.304;2022-12-13T12:10:41;97813.00;;;25.40
8362;BMP180;4218;48.326;14.304;2022-12-13T12:13:30;97815.00;;;25.40
8362;BMP180;4218;48.326;14.304;2022-12-13T12:16:02;97816.00;;;25.40
8362;BMP180;4218;48.326;14.304;2022-12-13T12:18:30;97815.00;;;25.40
8362;BMP180;4218;48.326;14.304;2022-12-13T12:23:55;97800.00;;;25.40
8362;BMP180;4218;48.326;14.304;2022-12-13T12:26:40;97814.00;;;25.40
8362;BMP180;4218;48.326;14.304;2022-12-13T12:39:57;97793.00;;;25.50
8362;BMP180;4218;48.326;14.304;2022-12-13T12:45:20;97791.00;;;25.50
8362;BMP180;4218;48.326;14.304;2022-12-13T12:48:04;97789.00;;;25.50
8362;BMP180;4218;48.326;14.304;2022-12-13T12:50:53;97788.00;;;25.50
8362;BMP180;4218;48.326;14.304;2022-12-13T12:53:28;97787.00;;;25.60
8362;BMP180;4218;48.326;14.304;2022-12-13T12:56:44;97780.00;;;25.60
8362;BMP180;4218;48.326;14.304;2022-12-13T13:02:22;97789.00;;;25.60
8362;BMP180;4218;48.326;14.304;2022-12-13T13:04:56;97774.00;;;25.60
8362;BMP180;4218;48.326;14.304;2022-12-13T13:07:31;97782.00;;;25.60
8362;BMP180;4218;48.326;14.304;2022-12-13T13:09:59;97779.00;;;25.60
8362;BMP180;4218;48.326;14.304;2022-12-13T13:12:26;97783.00;;;25.60
8362;BMP180;4218;48.326;14.304;2022-12-13T13:14:51;97782.00;;;25.60
8362;BMP180;4218;48.326;14.304;2022-12-13T13:20:17;97780.00;;;25.60
8362;BMP180;4218;48.326;14.304;2022-12-13T13:22:43;97786.00;;;25.50
8362;BMP180;4218;48.326;14.304;2022-12-13T13:27:50;97785.00;;;25.50
8362;BMP180;4218;48.326;14.304;2022-12-13T13:30:20;97793.00;;;25.50
8362;BMP180;4218;48.326;14.304;2022-12-13T13:32:48;97791.00;;;25.50
8362;BMP180;4218;48.326;14.304;2022-12-13T13:37:55;97796.00;;;25.50
8362;BMP180;4218;48.326;14.304;2022-12-13T13:40:34;97798.00;;;25.40
8362;BMP180;4218;48.326;14.304;2022-12-13T14:00:04;97816.00;;;25.30
8362;BMP180;4218;48.326;14.304;2022-12-13T14:08:17;97821.00;;;25.40
8362;BMP180;4218;48.326;14.304;2022-12-13T14:24:45;97816.00;;;25.50
8362;BMP180;4218;48.326;14.304;2022-12-13T14:29:50;97808.00;;;25.50
8362;BMP180;4218;48.326;14.304;2022-12-13T14:32:24;97827.00;;;25.50
8362;BMP180;4218;48.326;14.304;2022-12-13T14:34:51;97835.00;;;25.50
8362;BMP180;4218;48.326;14.304;2022-12-13T14:37:31;97825.00;;;25.50
8362;BMP180;4218;48.326;14.304;2022-12-13T14:40:01;97824.00;;;25.60
8362;BMP180;4218;48.326;14.304;2022-12-13T14:42:30;97813.00;;;25.60
8362;BMP180;4218;48.326;14.304;2022-12-13T14:45:34;97819.00;;;25.60
8362;BMP180;4218;48.326;14.304;2022-12-13T14:48:03;97818.00;;;25.60
8362;BMP180;4218;48.326;14.304;2022-12-13T14:50:32;97826.00;;;25.60
8362;BMP180;4218;48.326;14.304;2022-12-13T14:52:59;97825.00;;;25.60
8362;BMP180;4218;48.326;14.304;2022-12-13T14:55:32;97826.00;;;25.60
8362;BMP180;4218;48.326;14.304;2022-12-13T14:58:02;97833.00;;;25.60
8362;BMP180;4218;48.326;14.304;2022-12-13T15:00:31;97832.00;;;25.60
8362;BMP180;4218;48.326;14.304;2022-12-13T15:02:59;97829.00;;;25.60
8362;BMP180;4218;48.326;14.304;2022-12-13T15:05:31;97829.00;;;25.70
8362;BMP180;4218;48.326;14.304;2022-12-13T15:07:59;97830.00;;;25.70
8362;BMP180;4218;48.326;14.304;2022-12-13T15:10:37;97834.00;;;25.70
8362;BMP180;4218;48.326;14.304;2022-12-13T15:13:04;97830.00;;;25.70
8362;BMP180;4218;48.326;14.304;2022-12-13T15:15:32;97829.00;;;25.60
8362;BMP180;4218;48.326;14.304;2022-12-13T15:20:38;97843.00;;;25.60
8362;BMP180;4218;48.326;14.304;2022-12-13T15:23:19;97842.00;;;25.50
8362;BMP180;4218;48.326;14.304;2022-12-13T15:25:47;97840.00;;;25.50
8362;BMP180;4218;48.326;14.304;2022-12-13T15:28:14;97843.00;;;25.50
8362;BMP180;4218;48.326;14.304;2022-12-13T15:30:41;97846.00;;;25.50
8362;BMP180;4218;48.326;14.304;2022-12-13T15:33:20;97844.00;;;25.50
8362;BMP180;4218;48.326;14.304;2022-12-13T15:36:01;97843.00;;;25.50
8362;BMP180;4218;48.326;14.304;2022-12-13T15:38:27;97844.00;;;25.50
8362;BMP180;4218;48.326;14.304;2022-12-13T15:40:52;97837.00;;;25.50
8362;BMP180;4218;48.326;14.304;2022-12-13T15:43:20;97836.00;;;25.50
8362;BMP180;4218;48.326;14.304;2022-12-13T15:45:49;97844.00;;;25.50
8362;BMP180;4218;48.326;14.304;2022-12-13T15:48:39;97849.00;;;25.60
8362;BMP180;4218;48.326;14.304;2022-12-13T15:51:17;97856.00;;;25.60
8362;BMP180;4218;48.326;14.304;2022-12-13T15:56:35;97858.00;;;25.50
8362;BMP180;4218;48.326;14.304;2022-12-13T15:59:01;97856.00;;;25.50
8362;BMP180;4218;48.326;14.304;2022-12-13T16:01:30;97854.00;;;25.50
8362;BMP180;4218;48.326;14.304;2022-12-13T16:03:57;97846.00;;;25.50
8362;BMP180;4218;48.326;14.304;2022-12-13T16:06:24;97853.00;;;25.50
8362;BMP180;4218;48.326;14.304;2022-12-13T16:08:52;97845.00;;;25.50
8362;BMP180;4218;48.326;14.304;2022-12-13T16:11:31;97841.00;;;25.50
8362;BMP180;4218;48.326;14.304;2022-12-13T16:17:03;97844.00;;;25.50
8362;BMP180;4218;48.326;14.304;2022-12-13T16:19:30;97845.00;;;25.50
8362;BMP180;4218;48.326;14.304;2022-12-13T16:21:56;97848.00;;;25.50
8362;BMP180;4218;48.326;14.304;2022-12-13T16:24:21;97848.00;;;25.50
8362;BMP180;4218;48.326;14.304;2022-12-13T16:26:47;97849.00;;;25.50
8362;BMP180;4218;48.326;14.304;2022-12-13T16:29:15;97852.00;;;25.50
8362;BMP180;4218;48.326;14.304;2022-12-13T16:31:42;97856.00;;;25.50
8362;BMP180;4218;48.326;14.304;2022-12-13T16:34:11;97858.00;;;25.50
8362;BMP180;4218;48.326;14.304;2022-12-13T16:36:36;97853.00;;;25.60
8362;BMP180;4218;48.326;14.304;2022-12-13T16:39:03;97855.00;;;25.60
8362;BMP180;4218;48.326;14.304;2022-12-13T16:41:29;97857.00;;;25.60
8362;BMP180;4218;48.326;14.304;2022-12-13T16:44:00;97864.00;;;25.60